Time;durP1;ratioP1;P1;durP2;ratioP2;P2;SDS_P1;SDS_P2;PMS_P1;PMS_P2;Temp;Humidity;BMP_temperature;BMP_pressure;BME280_temperature;BME280_humidity;BME280_pressure;Samples;Min_cycle;Max_cycle;Signal;HPM_P1;HPM_P2
2021/01/18 00:02:20;;;;;;;;;;;25.50;75.10;;;;;;5028811;28;19913;-84
2021/01/18 00:04:47;;;;;;;;;;;25.60;76.00;;;;;;5039385;27;19921;-84
2021/01/18 00:07:14;;;;;;;;;;;25.70;76.00;;;;;;5028958;28;19913;-84
2021/01/18 00:09:40;;;;;;;;;;;25.70;75.70;;;;;;5035197;27;19917;-84
2021/01/18 00:12:07;;;;;;;;;;;25.70;75.20;;;;;;5040439;27;19972;-85
2021/01/18 00:14:34;;;;;;;;;;;25.90;73.30;;;;;;5033592;27;19911;-85
2021/01/18 00:17:05;;;;;;;;;;;26.00;74.40;;;;;;5037995;27;19934;-83
2021/01/18 00:19:35;;;;;;;;;;;26.00;74.80;;;;;;5052692;27;19911;-85
2021/01/18 00:22:17;;;;;;;;;;;26.00;74.40;;;;;;5033227;27;19929;-86
2021/01/18 00:24:43;;;;;;;;;;;26.10;73.50;;;;;;5028589;28;19921;-84
2021/01/18 00:27:11;;;;;;;;;;;26.10;73.80;;;;;;5021878;28;20939;-85
2021/01/18 00:29:38;;;;;;;;;;;26.00;72.00;;;;;;5039837;28;19917;-84
2021/01/18 00:32:04;;;;;;;;;;;25.90;71.30;;;;;;5039885;28;19914;-84
2021/01/18 00:34:31;;;;;;;;;;;25.90;70.90;;;;;;5035578;28;20328;-85
2021/01/18 00:36:58;;;;;;;;;;;25.90;70.40;;;;;;5042259;27;19970;-84
2021/01/18 00:39:26;;;;;;;;;;;26.10;68.70;;;;;;5037455;27;19981;-86
2021/01/18 00:41:52;;;;;;;;;;;26.30;68.30;;;;;;5054524;27;20532;-87
2021/01/18 00:44:19;;;;;;;;;;;26.30;68.40;;;;;;5025341;27;19918;-83
2021/01/18 00:46:49;;;;;;;;;;;26.40;68.20;;;;;;5031050;27;20715;-84
2021/01/18 00:49:15;;;;;;;;;;;26.60;66.80;;;;;;5042843;27;19932;-85
2021/01/18 00:51:42;;;;;;;;;;;26.90;66.70;;;;;;5045781;27;19961;-84
2021/01/18 00:54:09;;;;;;;;;;;27.10;65.50;;;;;;5084286;27;20427;-85
2021/01/18 00:56:35;;;;;;;;;;;27.40;62.80;;;;;;5037842;27;19940;-83
2021/01/18 00:59:02;;;;;;;;;;;27.70;75.50;;;;;;5045341;27;19947;-83
2021/01/18 01:01:29;;;;;;;;;;;28.00;76.50;;;;;;5041972;27;19921;-82
2021/01/18 01:03:55;;;;;;;;;;;28.40;76.10;;;;;;5045910;27;19921;-83
2021/01/18 01:06:22;;;;;;;;;;;28.50;75.90;;;;;;5051948;27;19913;-86
2021/01/18 01:08:52;;;;;;;;;;;29.00;75.30;;;;;;5039234;27;19921;-84
2021/01/18 01:11:28;;;;;;;;;;;28.70;74.80;;;;;;5036422;27;20295;-84
2021/01/18 01:13:58;;;;;;;;;;;28.70;75.40;;;;;;5027825;27;19926;-83
2021/01/18 01:16:24;;;;;;;;;;;28.60;74.70;;;;;;5050618;27;19927;-83
2021/01/18 01:18:51;;;;;;;;;;;28.80;74.90;;;;;;5041522;27;19922;-84
2021/01/18 01:21:18;;;;;;;;;;;28.90;74.60;;;;;;5040870;27;19982;-86
2021/01/18 01:23:44;;;;;;;;;;;28.90;75.60;;;;;;5040309;27;19913;-82
2021/01/18 01:26:11;;;;;;;;;;;29.00;74.80;;;;;;5055229;27;20026;-83
2021/01/18 01:28:39;;;;;;;;;;;28.90;74.70;;;;;;5045054;27;21661;-83
2021/01/18 01:31:05;;;;;;;;;;;28.80;75.60;;;;;;5036308;27;21056;-83
2021/01/18 01:33:43;;;;;;;;;;;29.00;74.40;;;;;;5083992;27;19926;-85
2021/01/18 01:36:14;;;;;;;;;;;29.40;74.10;;;;;;5055029;27;19919;-85
2021/01/18 01:38:47;;;;;;;;;;;29.40;73.80;;;;;;5060077;27;19918;-84
2021/01/18 01:41:17;;;;;;;;;;;29.40;72.90;;;;;;5111568;27;20311;-87
2021/01/18 01:43:44;;;;;;;;;;;29.40;74.00;;;;;;5050655;27;19941;-82
2021/01/18 01:46:21;;;;;;;;;;;29.80;73.00;;;;;;5033198;27;19936;-87
2021/01/18 01:48:48;;;;;;;;;;;29.80;72.40;;;;;;5037610;27;20513;-82
2021/01/18 01:51:14;;;;;;;;;;;30.00;72.40;;;;;;5072845;27;19901;-80
2021/01/18 01:53:41;;;;;;;;;;;30.00;72.10;;;;;;5047091;27;19992;-83
2021/01/18 01:56:08;;;;;;;;;;;30.10;70.50;;;;;;5037661;27;19925;-81
2021/01/18 01:58:34;;;;;;;;;;;29.90;71.00;;;;;;5033058;27;20003;-80
2021/01/18 02:01:04;;;;;;;;;;;29.60;72.30;;;;;;5023969;27;19921;-82
2021/01/18 02:03:41;;;;;;;;;;;29.30;72.00;;;;;;5035462;27;19921;-82
2021/01/18 02:06:09;;;;;;;;;;;28.80;74.10;;;;;;5045359;27;20012;-83
2021/01/18 02:08:37;;;;;;;;;;;28.20;76.30;;;;;;5040638;27;19947;-81
2021/01/18 02:11:04;;;;;;;;;;;28.00;77.60;;;;;;5031270;27;19974;-82
2021/01/18 02:13:49;;;;;;;;;;;27.80;77.00;;;;;;5036150;27;19935;-80
2021/01/18 02:16:28;;;;;;;;;;;27.60;77.80;;;;;;5051230;27;19917;-83
2021/01/18 02:19:01;;;;;;;;;;;27.50;77.80;;;;;;5034853;27;20110;-84
2021/01/18 02:21:40;;;;;;;;;;;27.50;78.70;;;;;;5040165;27;19927;-82
2021/01/18 02:24:24;;;;;;;;;;;27.40;79.50;;;;;;5041905;27;19916;-82
2021/01/18 02:26:54;;;;;;;;;;;27.60;80.40;;;;;;5038932;27;19958;-82
2021/01/18 02:29:40;;;;;;;;;;;27.70;80.10;;;;;;5021645;27;20026;-82
2021/01/18 02:32:33;;;;;;;;;;;27.60;79.30;;;;;;5047205;27;19909;-83
2021/01/18 02:35:18;;;;;;;;;;;27.50;79.10;;;;;;5039087;27;19921;-81
2021/01/18 02:37:46;;;;;;;;;;;27.50;79.50;;;;;;5034606;27;20359;-83
2021/01/18 02:40:23;;;;;;;;;;;27.50;79.10;;;;;;5031134;27;19921;-82
2021/01/18 02:42:52;;;;;;;;;;;27.40;80.10;;;;;;5031092;27;19966;-81
2021/01/18 02:45:21;;;;;;;;;;;27.20;79.50;;;;;;5035722;27;19913;-81
2021/01/18 02:47:49;;;;;;;;;;;27.10;80.00;;;;;;5034618;27;20355;-82
2021/01/18 02:50:44;;;;;;;;;;;27.10;80.50;;;;;;5043936;27;19945;-84
2021/01/18 02:53:11;;;;;;;;;;;27.10;79.80;;;;;;5046972;27;20124;-81
2021/01/18 02:55:37;;;;;;;;;;;27.10;80.50;;;;;;5029554;27;20365;-82
2021/01/18 02:58:06;;;;;;;;;;;27.40;80.00;;;;;;5036734;27;20396;-83
2021/01/18 03:00:34;;;;;;;;;;;27.40;79.80;;;;;;5031851;27;19917;-84
2021/01/18 03:03:07;;;;;;;;;;;27.50;80.80;;;;;;5046702;27;19924;-82
2021/01/18 03:05:51;;;;;;;;;;;27.40;79.80;;;;;;5037765;27;19932;-83
2021/01/18 03:08:28;;;;;;;;;;;27.30;80.70;;;;;;5037784;27;20427;-82
2021/01/18 03:11:10;;;;;;;;;;;27.30;80.70;;;;;;5048635;27;19922;-85
2021/01/18 03:13:45;;;;;;;;;;;27.30;80.50;;;;;;5073122;27;19913;-86
2021/01/18 03:16:22;;;;;;;;;;;27.30;80.50;;;;;;5054681;27;19921;-84
2021/01/18 03:18:50;;;;;;;;;;;27.20;81.00;;;;;;5047199;27;19917;-83
2021/01/18 03:21:17;;;;;;;;;;;27.10;81.70;;;;;;5055630;27;20355;-85
2021/01/18 03:23:45;;;;;;;;;;;27.10;81.60;;;;;;5028127;27;20378;-83
2021/01/18 03:26:12;;;;;;;;;;;27.00;82.20;;;;;;5045075;27;19916;-83
2021/01/18 03:28:39;;;;;;;;;;;27.10;81.60;;;;;;5032575;27;19917;-81
2021/01/18 03:31:06;;;;;;;;;;;27.10;80.80;;;;;;5045806;27;19913;-82
2021/01/18 03:33:36;;;;;;;;;;;27.00;82.10;;;;;;5044502;27;19939;-83
2021/01/18 03:36:03;;;;;;;;;;;27.10;81.40;;;;;;5034433;27;19939;-83
2021/01/18 03:38:35;;;;;;;;;;;27.10;81.40;;;;;;5032380;27;19948;-81
2021/01/18 03:41:05;;;;;;;;;;;27.00;81.10;;;;;;5031484;27;20790;-83
2021/01/18 03:43:36;;;;;;;;;;;27.00;80.80;;;;;;5064426;27;19917;-82
2021/01/18 03:46:06;;;;;;;;;;;27.10;81.80;;;;;;5013762;28;20290;-84
2021/01/18 03:48:33;;;;;;;;;;;27.10;81.30;;;;;;5040388;27;20284;-81
2021/01/18 03:51:38;;;;;;;;;;;27.20;80.40;;;;;;5037723;27;19925;-85
2021/01/18 03:54:06;;;;;;;;;;;27.20;81.10;;;;;;5019808;27;19913;-84
2021/01/18 03:56:41;;;;;;;;;;;27.20;81.30;;;;;;5035642;27;20710;-81
2021/01/18 03:59:08;;;;;;;;;;;27.10;81.90;;;;;;5047613;27;19915;-84
2021/01/18 04:01:38;;;;;;;;;;;27.10;81.30;;;;;;5044618;27;19923;-83
2021/01/18 04:04:06;;;;;;;;;;;27.10;81.90;;;;;;5080476;27;20070;-84
2021/01/18 04:06:36;;;;;;;;;;;27.10;81.10;;;;;;5030418;28;19928;-84
2021/01/18 04:09:04;;;;;;;;;;;27.00;81.30;;;;;;5036481;27;19921;-83
2021/01/18 04:11:32;;;;;;;;;;;27.10;81.10;;;;;;5033149;27;19913;-85
2021/01/18 04:13:59;;;;;;;;;;;27.00;81.10;;;;;;5042721;27;19993;-83
2021/01/18 04:16:29;;;;;;;;;;;27.00;79.90;;;;;;5030379;27;20274;-83
2021/01/18 04:19:24;;;;;;;;;;;27.00;79.20;;;;;;5058082;27;19911;-87
2021/01/18 04:21:51;;;;;;;;;;;27.00;80.00;;;;;;5041434;27;19922;-81
2021/01/18 04:24:18;;;;;;;;;;;27.00;82.00;;;;;;5045297;27;19915;-83
2021/01/18 04:26:47;;;;;;;;;;;27.00;81.10;;;;;;5035054;28;19916;-82
2021/01/18 04:29:14;;;;;;;;;;;27.00;81.50;;;;;;5032758;27;20377;-84
2021/01/18 04:31:41;;;;;;;;;;;27.00;81.20;;;;;;5049014;27;19966;-82
2021/01/18 04:34:09;;;;;;;;;;;26.90;80.90;;;;;;5022174;28;19921;-87
2021/01/18 04:36:37;;;;;;;;;;;26.80;81.30;;;;;;5033299;28;20042;-83
2021/01/18 04:39:04;;;;;;;;;;;26.80;80.70;;;;;;5030623;28;19928;-84
2021/01/18 04:41:31;;;;;;;;;;;26.90;79.80;;;;;;5033311;28;19924;-84
2021/01/18 04:43:59;;;;;;;;;;;26.80;80.80;;;;;;5060782;27;20419;-83
2021/01/18 04:46:29;;;;;;;;;;;26.80;80.90;;;;;;5090925;28;21653;-82
2021/01/18 04:48:58;;;;;;;;;;;26.90;82.00;;;;;;5027907;28;20938;-84
2021/01/18 04:51:25;;;;;;;;;;;26.80;81.00;;;;;;5027380;28;19923;-82
2021/01/18 04:53:53;;;;;;;;;;;26.80;81.80;;;;;;5041950;28;19920;-82
2021/01/18 04:56:31;;;;;;;;;;;26.80;82.10;;;;;;5027784;28;20015;-86
2021/01/18 04:59:00;;;;;;;;;;;26.70;82.90;;;;;;5031396;28;19914;-85
2021/01/18 05:01:30;;;;;;;;;;;26.60;82.40;;;;;;5041765;27;20050;-86
2021/01/18 05:04:03;;;;;;;;;;;26.60;82.70;;;;;;5055459;27;19940;-83
2021/01/18 05:06:56;;;;;;;;;;;26.50;82.50;;;;;;5027191;28;19925;-83
2021/01/18 05:09:30;;;;;;;;;;;26.60;82.80;;;;;;5034887;28;20007;-83
2021/01/18 05:11:58;;;;;;;;;;;26.50;82.60;;;;;;5031137;27;19921;-82
2021/01/18 05:14:25;;;;;;;;;;;26.50;82.40;;;;;;5026045;28;19931;-83
2021/01/18 05:16:53;;;;;;;;;;;26.50;83.10;;;;;;5053743;28;19932;-83
2021/01/18 05:19:20;;;;;;;;;;;26.60;82.50;;;;;;5050599;28;20045;-84
2021/01/18 05:21:48;;;;;;;;;;;26.60;82.00;;;;;;5031267;28;19909;-82
2021/01/18 05:24:16;;;;;;;;;;;26.60;81.80;;;;;;5051345;27;19926;-82
2021/01/18 05:27:02;;;;;;;;;;;26.60;81.30;;;;;;5048374;27;19901;-82
2021/01/18 05:29:33;;;;;;;;;;;26.50;82.10;;;;;;5039483;28;19940;-79
2021/01/18 05:31:59;;;;;;;;;;;26.40;82.50;;;;;;5032576;28;20347;-82
2021/01/18 05:34:28;;;;;;;;;;;26.30;81.50;;;;;;5032562;28;19919;-79
2021/01/18 05:36:54;;;;;;;;;;;26.30;81.90;;;;;;5032811;28;19918;-78
2021/01/18 05:39:22;;;;;;;;;;;26.30;82.20;;;;;;5033684;28;19962;-80
2021/01/18 05:41:49;;;;;;;;;;;26.30;82.20;;;;;;5038241;28;19909;-80
2021/01/18 05:44:16;;;;;;;;;;;26.30;82.20;;;;;;5030201;27;19917;-79
2021/01/18 05:46:46;;;;;;;;;;;26.30;82.30;;;;;;5040828;27;20015;-79
2021/01/18 05:49:13;;;;;;;;;;;26.20;82.60;;;;;;5038094;27;19921;-80
2021/01/18 05:51:41;;;;;;;;;;;26.10;83.10;;;;;;5031027;27;20031;-78
2021/01/18 05:54:11;;;;;;;;;;;26.10;83.10;;;;;;5028687;27;19920;-79
2021/01/18 05:56:39;;;;;;;;;;;26.10;82.90;;;;;;5044351;27;19925;-78
2021/01/18 05:59:12;;;;;;;;;;;26.00;83.50;;;;;;5030543;28;19910;-79
2021/01/18 06:01:39;;;;;;;;;;;26.00;83.80;;;;;;5033256;27;19919;-79
2021/01/18 06:04:16;;;;;;;;;;;26.00;84.00;;;;;;5047986;27;20106;-79
2021/01/18 06:06:44;;;;;;;;;;;26.00;83.40;;;;;;5036100;27;19917;-79
2021/01/18 06:09:10;;;;;;;;;;;26.00;83.40;;;;;;5040715;27;20282;-79
2021/01/18 06:11:37;;;;;;;;;;;26.00;82.80;;;;;;5039815;27;19920;-77
2021/01/18 06:14:05;;;;;;;;;;;25.90;82.30;;;;;;5034142;27;19995;-78
2021/01/18 06:16:32;;;;;;;;;;;25.90;83.10;;;;;;5050309;27;20387;-80
2021/01/18 06:19:03;;;;;;;;;;;25.90;82.00;;;;;;5072960;27;21241;-79
2021/01/18 06:21:40;;;;;;;;;;;25.90;83.10;;;;;;5030871;28;20253;-80
2021/01/18 06:24:14;;;;;;;;;;;25.80;81.00;;;;;;5033758;27;19927;-79
2021/01/18 06:26:41;;;;;;;;;;;25.80;82.80;;;;;;5027992;28;19923;-81
2021/01/18 06:29:08;;;;;;;;;;;25.80;82.70;;;;;;5023513;27;20363;-78
2021/01/18 06:31:45;;;;;;;;;;;25.90;82.10;;;;;;5028156;28;20390;-80
2021/01/18 06:34:11;;;;;;;;;;;25.80;82.60;;;;;;5029220;27;19965;-79
2021/01/18 06:36:40;;;;;;;;;;;25.90;82.80;;;;;;5034385;27;19947;-78
2021/01/18 06:39:07;;;;;;;;;;;25.90;82.00;;;;;;5035158;27;20198;-79
2021/01/18 06:41:35;;;;;;;;;;;25.80;81.70;;;;;;5043951;27;19913;-79
2021/01/18 06:44:03;;;;;;;;;;;25.70;82.50;;;;;;5043334;27;20304;-79
2021/01/18 06:46:36;;;;;;;;;;;25.80;82.70;;;;;;5034586;27;20013;-80
2021/01/18 06:49:04;;;;;;;;;;;25.80;82.40;;;;;;5038000;27;19962;-79
2021/01/18 06:51:32;;;;;;;;;;;25.80;82.10;;;;;;5042094;27;19920;-80
2021/01/18 06:53:59;;;;;;;;;;;25.80;81.80;;;;;;5031971;27;19917;-82
2021/01/18 06:56:26;;;;;;;;;;;25.80;81.60;;;;;;5027388;27;20303;-80
2021/01/18 06:59:07;;;;;;;;;;;25.80;81.50;;;;;;5035231;27;19921;-80
2021/01/18 07:01:38;;;;;;;;;;;25.70;80.60;;;;;;5029367;27;19925;-86
2021/01/18 07:04:12;;;;;;;;;;;25.70;80.50;;;;;;5055377;27;19913;-81
2021/01/18 07:06:39;;;;;;;;;;;25.80;80.10;;;;;;5031556;27;19936;-82
2021/01/18 07:09:08;;;;;;;;;;;25.70;79.70;;;;;;5035640;27;19909;-82
2021/01/18 07:11:35;;;;;;;;;;;25.80;79.10;;;;;;5031401;28;19913;-84
2021/01/18 07:14:20;;;;;;;;;;;25.60;78.70;;;;;;5027160;28;20298;-82
2021/01/18 07:16:50;;;;;;;;;;;25.60;78.30;;;;;;5031445;27;19928;-85
2021/01/18 07:19:25;;;;;;;;;;;25.60;78.40;;;;;;5039169;27;19909;-81
2021/01/18 07:22:11;;;;;;;;;;;25.60;77.40;;;;;;5020873;28;19914;-82
2021/01/18 07:24:41;;;;;;;;;;;25.60;76.80;;;;;;5031771;27;19909;-82
2021/01/18 07:27:11;;;;;;;;;;;25.60;77.90;;;;;;5028435;27;19916;-83
2021/01/18 07:29:37;;;;;;;;;;;25.60;77.20;;;;;;5027835;27;19920;-82
2021/01/18 07:32:08;;;;;;;;;;;25.60;78.20;;;;;;5048681;27;19956;-81
2021/01/18 07:34:36;;;;;;;;;;;25.60;76.40;;;;;;5117513;27;20344;-82
2021/01/18 07:37:07;;;;;;;;;;;25.60;76.80;;;;;;5034141;27;20346;-82
2021/01/18 07:39:41;;;;;;;;;;;25.50;76.50;;;;;;5034697;28;19964;-82
2021/01/18 07:42:26;;;;;;;;;;;25.50;77.10;;;;;;5022922;28;19909;-82
2021/01/18 07:45:10;;;;;;;;;;;25.40;75.10;;;;;;5024487;27;20008;-81
2021/01/18 07:47:55;;;;;;;;;;;25.40;77.40;;;;;;5024116;27;19913;-82
2021/01/18 07:50:31;;;;;;;;;;;25.40;77.40;;;;;;5056305;27;19965;-82
2021/01/18 07:53:02;;;;;;;;;;;25.40;78.10;;;;;;5021540;27;20052;-82
2021/01/18 07:55:28;;;;;;;;;;;25.40;79.40;;;;;;5033308;27;19944;-82
2021/01/18 07:58:11;;;;;;;;;;;25.40;80.60;;;;;;5035640;27;19921;-84
2021/01/18 08:00:41;;;;;;;;;;;25.30;82.20;;;;;;5036012;27;19917;-83
2021/01/18 08:03:07;;;;;;;;;;;25.30;84.00;;;;;;5038496;27;19973;-80
2021/01/18 08:05:38;;;;;;;;;;;25.30;84.80;;;;;;5047635;28;19921;-82
2021/01/18 08:08:05;;;;;;;;;;;25.20;84.90;;;;;;5035837;27;19948;-82
2021/01/18 08:10:50;;;;;;;;;;;25.10;85.80;;;;;;5054663;27;19950;-82
2021/01/18 08:13:32;;;;;;;;;;;25.10;87.30;;;;;;5132887;27;20339;-80
2021/01/18 08:16:13;;;;;;;;;;;25.00;87.10;;;;;;5075992;27;19919;-82
2021/01/18 08:18:54;;;;;;;;;;;24.90;87.10;;;;;;5062478;27;19909;-81
2021/01/18 08:21:36;;;;;;;;;;;24.90;87.20;;;;;;5043162;27;20390;-82
2021/01/18 08:24:03;;;;;;;;;;;24.90;87.50;;;;;;5043980;27;20291;-82
2021/01/18 08:26:48;;;;;;;;;;;24.80;84.90;;;;;;5036424;28;19921;-82
2021/01/18 08:29:33;;;;;;;;;;;24.80;86.90;;;;;;5042505;27;20377;-80
2021/01/18 08:32:18;;;;;;;;;;;24.70;86.90;;;;;;5037203;28;19923;-80
2021/01/18 08:34:45;;;;;;;;;;;24.60;88.00;;;;;;5030570;28;19917;-80
2021/01/18 08:37:12;;;;;;;;;;;24.60;87.60;;;;;;5032075;28;19923;-83
2021/01/18 08:39:51;;;;;;;;;;;24.60;87.20;;;;;;5047170;28;19932;-86
2021/01/18 08:42:26;;;;;;;;;;;24.50;86.90;;;;;;5041977;28;19909;-82
2021/01/18 08:44:57;;;;;;;;;;;24.50;87.30;;;;;;5038051;28;19965;-79
2021/01/18 08:47:36;;;;;;;;;;;24.50;87.10;;;;;;5038350;27;19917;-81
2021/01/18 08:50:15;;;;;;;;;;;24.50;87.60;;;;;;5035894;28;20029;-82
2021/01/18 08:52:42;;;;;;;;;;;24.50;87.40;;;;;;5030897;28;19961;-85
2021/01/18 08:55:27;;;;;;;;;;;24.50;87.80;;;;;;5029449;28;19956;-81
2021/01/18 08:58:04;;;;;;;;;;;24.40;88.90;;;;;;5041447;27;19965;-82
2021/01/18 09:00:43;;;;;;;;;;;24.40;89.10;;;;;;5040157;27;19917;-82
2021/01/18 09:03:11;;;;;;;;;;;24.40;89.40;;;;;;5044392;27;20355;-80
2021/01/18 09:05:38;;;;;;;;;;;24.40;89.40;;;;;;5036176;27;20101;-81
2021/01/18 09:08:07;;;;;;;;;;;24.30;89.30;;;;;;5043486;27;19918;-81
2021/01/18 09:10:34;;;;;;;;;;;24.30;89.30;;;;;;5049219;27;19923;-82
2021/01/18 09:13:02;;;;;;;;;;;24.20;88.80;;;;;;5037046;27;19909;-80
2021/01/18 09:15:28;;;;;;;;;;;24.20;89.30;;;;;;5037652;27;19909;-81
2021/01/18 09:17:55;;;;;;;;;;;24.20;89.80;;;;;;5043484;27;19970;-83
2021/01/18 09:20:22;;;;;;;;;;;24.10;90.20;;;;;;5039345;27;20271;-81
2021/01/18 09:22:49;;;;;;;;;;;24.10;90.30;;;;;;5042008;27;19938;-83
2021/01/18 09:25:16;;;;;;;;;;;24.10;90.50;;;;;;5066574;27;20409;-82
2021/01/18 09:27:43;;;;;;;;;;;24.10;90.80;;;;;;5044242;27;20026;-82
2021/01/18 09:30:17;;;;;;;;;;;24.10;90.70;;;;;;5051028;27;19973;-85
2021/01/18 09:33:06;;;;;;;;;;;24.00;91.00;;;;;;5027340;27;20426;-83
2021/01/18 09:35:34;;;;;;;;;;;24.00;91.10;;;;;;5040330;27;20009;-83
2021/01/18 09:38:01;;;;;;;;;;;23.90;91.30;;;;;;5039073;27;20380;-80
2021/01/18 09:40:28;;;;;;;;;;;24.00;91.80;;;;;;5033360;27;20575;-79
2021/01/18 09:42:55;;;;;;;;;;;23.90;92.20;;;;;;5031974;27;19913;-82
2021/01/18 09:45:22;;;;;;;;;;;23.80;92.50;;;;;;5038607;27;19909;-82
2021/01/18 09:47:49;;;;;;;;;;;23.80;92.80;;;;;;5036087;27;20375;-83
2021/01/18 09:50:17;;;;;;;;;;;23.80;93.00;;;;;;5052635;27;20316;-83
2021/01/18 09:52:49;;;;;;;;;;;23.80;93.40;;;;;;5043333;27;19907;-82
2021/01/18 09:55:20;;;;;;;;;;;23.70;93.70;;;;;;5039732;27;19913;-81
2021/01/18 09:57:59;;;;;;;;;;;23.70;93.80;;;;;;5036165;27;19924;-81
2021/01/18 10:00:30;;;;;;;;;;;23.70;94.10;;;;;;5036824;27;19911;-79
2021/01/18 10:02:59;;;;;;;;;;;23.70;94.30;;;;;;5030699;28;19961;-81
2021/01/18 10:05:28;;;;;;;;;;;23.70;94.40;;;;;;5026404;27;19999;-83
2021/01/18 10:07:55;;;;;;;;;;;23.70;94.40;;;;;;5027354;28;19916;-83
2021/01/18 10:10:22;;;;;;;;;;;23.70;94.60;;;;;;5040264;27;19910;-81
2021/01/18 10:12:51;;;;;;;;;;;23.80;94.40;;;;;;5039227;27;20386;-82
2021/01/18 10:15:29;;;;;;;;;;;23.80;94.40;;;;;;5031605;27;20290;-82
2021/01/18 10:17:56;;;;;;;;;;;23.80;94.50;;;;;;5031271;28;19925;-79
2021/01/18 10:20:30;;;;;;;;;;;23.90;94.60;;;;;;5033516;27;20385;-81
2021/01/18 10:22:57;;;;;;;;;;;23.90;94.50;;;;;;5046614;27;20015;-79
2021/01/18 10:25:28;;;;;;;;;;;23.80;94.30;;;;;;5029891;27;20001;-82
2021/01/18 10:27:56;;;;;;;;;;;23.80;94.30;;;;;;5052881;27;19921;-83
2021/01/18 10:30:28;;;;;;;;;;;23.80;94.00;;;;;;5036196;27;19911;-82
2021/01/18 10:32:56;;;;;;;;;;;23.80;93.80;;;;;;5034019;27;20232;-81
2021/01/18 10:35:24;;;;;;;;;;;23.80;93.70;;;;;;5035844;28;19916;-85
2021/01/18 10:37:53;;;;;;;;;;;23.80;93.60;;;;;;5029415;27;19927;-85
2021/01/18 10:40:21;;;;;;;;;;;23.80;93.70;;;;;;5037544;27;20279;-84
2021/01/18 10:42:49;;;;;;;;;;;23.80;93.50;;;;;;5033766;27;20127;-82
2021/01/18 10:45:17;;;;;;;;;;;23.80;93.40;;;;;;5028264;28;19917;-81
2021/01/18 10:47:53;;;;;;;;;;;23.70;93.40;;;;;;5039940;27;19928;-81
2021/01/18 10:50:23;;;;;;;;;;;23.70;93.50;;;;;;5040514;28;19917;-81
2021/01/18 10:52:50;;;;;;;;;;;23.70;93.60;;;;;;5079043;27;19915;-83
2021/01/18 10:55:23;;;;;;;;;;;23.60;93.90;;;;;;5037111;27;19924;-80
2021/01/18 10:57:51;;;;;;;;;;;23.50;93.60;;;;;;5026401;28;19925;-83
2021/01/18 11:00:22;;;;;;;;;;;23.50;93.50;;;;;;5035541;27;19909;-84
2021/01/18 11:02:58;;;;;;;;;;;23.50;93.20;;;;;;5029904;28;20024;-84
2021/01/18 11:05:32;;;;;;;;;;;23.60;93.50;;;;;;5028051;28;19921;-83
2021/01/18 11:07:59;;;;;;;;;;;23.70;93.20;;;;;;5037341;27;19917;-80
2021/01/18 11:10:27;;;;;;;;;;;23.70;93.30;;;;;;5029933;28;19921;-84
2021/01/18 11:13:13;;;;;;;;;;;23.70;92.80;;;;;;5028027;28;19920;-83
2021/01/18 11:15:41;;;;;;;;;;;23.70;93.00;;;;;;5036848;28;20004;-83
2021/01/18 11:18:08;;;;;;;;;;;23.70;93.20;;;;;;5029171;28;19921;-81
2021/01/18 11:20:36;;;;;;;;;;;23.70;93.10;;;;;;5028005;28;19917;-81
2021/01/18 11:23:03;;;;;;;;;;;23.70;93.00;;;;;;5028946;28;19909;-81
2021/01/18 11:25:30;;;;;;;;;;;23.70;93.00;;;;;;5027353;28;19965;-82
2021/01/18 11:28:07;;;;;;;;;;;23.70;93.10;;;;;;5028271;28;19914;-82
2021/01/18 11:30:34;;;;;;;;;;;23.60;93.10;;;;;;5027440;28;19929;-81
2021/01/18 11:33:01;;;;;;;;;;;23.70;93.20;;;;;;5029051;28;19927;-81
2021/01/18 11:35:27;;;;;;;;;;;23.70;93.20;;;;;;5028199;28;19948;-81
2021/01/18 11:37:54;;;;;;;;;;;23.60;93.20;;;;;;5027909;28;19929;-82
2021/01/18 11:40:21;;;;;;;;;;;23.60;93.20;;;;;;5027225;28;19913;-84
2021/01/18 11:42:47;;;;;;;;;;;23.70;93.20;;;;;;5031887;28;19940;-82
2021/01/18 11:45:14;;;;;;;;;;;23.70;93.00;;;;;;5050796;28;19916;-83
2021/01/18 11:47:41;;;;;;;;;;;23.70;92.90;;;;;;5086568;27;19943;-81
2021/01/18 11:50:09;;;;;;;;;;;23.70;92.90;;;;;;5069848;27;20371;-82
2021/01/18 11:52:45;;;;;;;;;;;23.70;92.70;;;;;;5030360;28;19919;-82
2021/01/18 11:55:16;;;;;;;;;;;23.60;92.50;;;;;;5030143;28;19921;-83
2021/01/18 11:57:43;;;;;;;;;;;23.70;92.60;;;;;;5030344;28;19978;-83
2021/01/18 12:00:11;;;;;;;;;;;23.60;92.40;;;;;;5082670;27;19911;-82
2021/01/18 12:02:37;;;;;;;;;;;23.70;92.20;;;;;;5133393;27;19919;-82
2021/01/18 12:05:05;;;;;;;;;;;23.70;92.10;;;;;;5032984;27;19921;-81
2021/01/18 12:07:32;;;;;;;;;;;23.70;92.00;;;;;;5030359;28;20336;-82
2021/01/18 12:10:01;;;;;;;;;;;23.70;91.90;;;;;;5029312;28;20274;-83
2021/01/18 12:12:28;;;;;;;;;;;23.70;91.90;;;;;;5030395;28;19913;-83
2021/01/18 12:14:55;;;;;;;;;;;23.70;91.80;;;;;;5030140;28;19937;-82
2021/01/18 12:17:21;;;;;;;;;;;23.70;91.70;;;;;;5028333;28;19925;-81
2021/01/18 12:19:48;;;;;;;;;;;23.80;91.80;;;;;;5011519;28;19913;-84
2021/01/18 12:22:18;;;;;;;;;;;23.70;91.60;;;;;;5028572;28;19920;-84
2021/01/18 12:24:44;;;;;;;;;;;23.70;91.50;;;;;;5034861;28;20419;-83
2021/01/18 12:27:11;;;;;;;;;;;23.70;91.60;;;;;;5030694;28;19955;-82
2021/01/18 12:29:38;;;;;;;;;;;23.70;91.40;;;;;;5030483;28;20378;-85
2021/01/18 12:32:05;;;;;;;;;;;23.80;91.30;;;;;;5029407;28;19957;-82
2021/01/18 12:34:31;;;;;;;;;;;23.80;91.10;;;;;;5011940;28;19914;-81
2021/01/18 12:36:59;;;;;;;;;;;23.80;91.10;;;;;;5019848;28;19997;-81
2021/01/18 12:39:25;;;;;;;;;;;23.70;90.60;;;;;;5029950;28;19921;-82
2021/01/18 12:41:53;;;;;;;;;;;23.70;91.10;;;;;;5057973;27;19991;-84
2021/01/18 12:44:19;;;;;;;;;;;23.70;91.00;;;;;;5028005;28;19913;-82
2021/01/18 12:46:49;;;;;;;;;;;23.70;91.30;;;;;;5026061;28;19996;-82
2021/01/18 12:49:16;;;;;;;;;;;23.60;91.30;;;;;;5031502;28;19909;-84
2021/01/18 12:51:43;;;;;;;;;;;23.60;91.30;;;;;;5031892;28;20443;-82
2021/01/18 12:54:10;;;;;;;;;;;23.60;91.30;;;;;;5031378;28;19916;-83
2021/01/18 12:56:37;;;;;;;;;;;23.60;91.20;;;;;;5031460;28;20443;-82
2021/01/18 12:59:03;;;;;;;;;;;23.60;91.30;;;;;;5030777;28;19916;-82
2021/01/18 13:01:34;;;;;;;;;;;23.50;91.40;;;;;;5030134;28;19913;-82
2021/01/18 13:04:02;;;;;;;;;;;23.40;91.50;;;;;;5092477;27;20358;-83
2021/01/18 13:06:37;;;;;;;;;;;23.40;91.80;;;;;;5132309;27;19941;-83
2021/01/18 13:09:23;;;;;;;;;;;23.40;91.90;;;;;;5133284;27;19907;-81
2021/01/18 13:11:53;;;;;;;;;;;23.30;92.10;;;;;;5010096;28;19918;-82
2021/01/18 13:14:20;;;;;;;;;;;23.30;92.30;;;;;;5010235;28;20048;-83
2021/01/18 13:16:47;;;;;;;;;;;23.20;92.40;;;;;;5010310;28;19924;-85
2021/01/18 13:19:17;;;;;;;;;;;23.20;92.50;;;;;;5009786;28;19922;-81
2021/01/18 13:21:43;;;;;;;;;;;23.20;92.60;;;;;;5009792;28;19945;-84
2021/01/18 13:24:10;;;;;;;;;;;23.20;92.80;;;;;;5012177;28;20354;-84
2021/01/18 13:26:37;;;;;;;;;;;23.20;92.80;;;;;;5029326;28;20367;-82
2021/01/18 13:29:06;;;;;;;;;;;23.20;92.70;;;;;;5022992;28;19910;-82
2021/01/18 13:31:37;;;;;;;;;;;23.20;92.80;;;;;;5028373;28;20407;-82
2021/01/18 13:34:03;;;;;;;;;;;23.20;92.80;;;;;;5032729;27;19913;-82
2021/01/18 13:36:30;;;;;;;;;;;23.10;92.70;;;;;;5026368;28;20367;-83
2021/01/18 13:38:57;;;;;;;;;;;23.10;92.80;;;;;;5027445;28;19921;-83
2021/01/18 13:41:24;;;;;;;;;;;23.10;92.60;;;;;;5041217;28;20000;-82
2021/01/18 13:43:51;;;;;;;;;;;23.20;92.50;;;;;;5028547;28;19909;-81
2021/01/18 13:46:22;;;;;;;;;;;23.20;92.50;;;;;;5032193;28;19909;-83
2021/01/18 13:48:49;;;;;;;;;;;23.20;92.50;;;;;;5032580;28;19909;-82
2021/01/18 13:51:18;;;;;;;;;;;23.20;92.60;;;;;;5031453;28;19909;-83
2021/01/18 13:53:46;;;;;;;;;;;23.20;92.70;;;;;;5036299;27;19938;-82
2021/01/18 13:56:22;;;;;;;;;;;23.20;92.80;;;;;;5034540;27;19921;-83
2021/01/18 13:58:50;;;;;;;;;;;23.20;92.90;;;;;;5040711;27;20011;-81
2021/01/18 14:01:23;;;;;;;;;;;23.10;93.00;;;;;;5039924;27;19909;-82
2021/01/18 14:03:50;;;;;;;;;;;23.10;93.10;;;;;;5032944;27;20412;-81
2021/01/18 14:06:27;;;;;;;;;;;23.10;93.30;;;;;;5029838;28;19929;-81
2021/01/18 14:08:57;;;;;;;;;;;23.00;93.40;;;;;;5036025;27;19911;-82
2021/01/18 14:11:34;;;;;;;;;;;22.90;93.60;;;;;;5038014;27;19916;-81
2021/01/18 14:14:01;;;;;;;;;;;22.90;93.80;;;;;;5030273;27;19969;-82
2021/01/18 14:16:28;;;;;;;;;;;22.80;93.90;;;;;;5036336;27;19958;-83
2021/01/18 14:18:54;;;;;;;;;;;22.80;94.20;;;;;;5033582;27;19962;-82
2021/01/18 14:21:21;;;;;;;;;;;22.80;94.40;;;;;;5035403;27;20409;-82
2021/01/18 14:23:48;;;;;;;;;;;22.70;94.60;;;;;;5029386;28;19914;-83
2021/01/18 14:26:21;;;;;;;;;;;22.70;95.00;;;;;;5035162;27;19993;-82
2021/01/18 14:28:48;;;;;;;;;;;22.70;95.40;;;;;;5031521;27;19996;-82
2021/01/18 14:31:21;;;;;;;;;;;22.60;95.60;;;;;;5029773;27;19996;-85
2021/01/18 14:33:48;;;;;;;;;;;22.50;96.20;;;;;;5037893;27;20020;-82
2021/01/18 14:36:15;;;;;;;;;;;22.50;97.00;;;;;;5038936;27;19920;-82